PWSweather.com
Personal Weather Stations
Station Observations
RAINMAN1
Jacksonville, FL 32224

Jacksonville, FL 32224

Lat: 30.28041649, Lon: -81.46911621

Elevation: 26

Station Type: Tycon TP1080WC

Latest ConditionsUpdated 8:25:01 PM EST Monday, Nov 24, 2014
Currently Today's Max Today's Min Today's Average
Temperature 72.0°F22.2°C 87.6°F30.9°C 71.4°F21.9°C 77.4°F25.2°C
Dew Point 71.7°F22.1°C 78.0°F25.6°C 71.2°F21.8°C 74.3°F23.5°C
Winds Calm Calm 16.6 mph SW26.7 kmh SW - 6.5 mph 10.5 kmh
Wind Gusts -- 22.1 mph35.6 kmh - -
Humidity 99% 99% 66% 91%
Pressure 29.64 in1003.7 mb 29.64 in1003.7 mb 29.54 in1000.3 mb -
Hour Temp Dew Point Humidity Winds Wind Gusts Pressure Precip Precip Rate Daily Precip Total
08:25 PM 72.0°F22.2°C 71.7°F22.1°C 99% Calm Calm -- 29.64 in1003.7 mb 0.00 in0.0 mm 0.00 in/hr0.0 mm/hr 0.00 in0.0 mm
08:20 PM 71.8°F22.1°C 71.5°F21.9°C 99% Calm Calm -- 29.64 in1003.7 mb 0.00 in0.0 mm 0.00 in/hr0.0 mm/hr 0.00 in0.0 mm
08:15 PM 71.6°F22.0°C 71.3°F21.8°C 99% Calm Calm -- 29.64 in1003.7 mb 0.00 in0.0 mm 0.00 in/hr0.0 mm/hr 0.00 in0.0 mm
08:10 PM 71.8°F22.1°C 71.5°F21.9°C 99% Calm Calm -- 29.64 in1003.7 mb 0.00 in0.0 mm 0.00 in/hr0.0 mm/hr 0.00 in0.0 mm
08:05 PM 71.8°F22.1°C 71.5°F21.9°C 99% Calm Calm -- 29.64 in1003.7 mb 0.00 in0.0 mm 0.00 in/hr0.0 mm/hr 0.00 in0.0 mm
08:00 PM 71.8°F22.1°C 71.5°F21.9°C 99% Calm Calm -- 29.64 in1003.7 mb 0.00 in0.0 mm 0.00 in/hr0.0 mm/hr 0.00 in0.0 mm
07:55 PM 72.1°F22.3°C 71.9°F22.2°C 99% Calm Calm -- 29.64 in1003.7 mb 0.00 in0.0 mm 0.00 in/hr0.0 mm/hr 0.00 in0.0 mm
07:50 PM 72.1°F22.3°C 71.9°F22.2°C 99% Calm Calm -- 29.64 in1003.7 mb 0.00 in0.0 mm 0.00 in/hr0.0 mm/hr 0.00 in0.0 mm
07:45 PM 72.5°F22.5°C 72.2°F22.3°C 99% Calm Calm -- 29.64 in1003.7 mb 0.00 in0.0 mm 0.00 in/hr0.0 mm/hr 0.00 in0.0 mm
07:40 PM 72.3°F22.4°C 72.1°F22.3°C 99% Calm Calm -- 29.64 in1003.7 mb 0.00 in0.0 mm 0.00 in/hr0.0 mm/hr 0.00 in0.0 mm
07:35 PM 72.5°F22.5°C 72.2°F22.3°C 99% Calm Calm -- 29.64 in1003.7 mb 0.00 in0.0 mm 0.00 in/hr0.0 mm/hr 0.00 in0.0 mm
07:30 PM 72.9°F22.7°C 72.6°F22.6°C 99% Calm Calm 0.7 mph1.1 kmh 29.64 in1003.7 mb 0.00 in0.0 mm 0.00 in/hr0.0 mm/hr 0.00 in0.0 mm
07:25 PM 72.9°F22.7°C 72.6°F22.6°C 99% Calm Calm 0.7 mph1.1 kmh 29.63 in1003.4 mb 0.00 in0.0 mm 0.00 in/hr0.0 mm/hr 0.00 in0.0 mm
07:20 PM 72.9°F22.7°C 72.6°F22.6°C 99% Calm Calm -- 29.63 in1003.4 mb 0.00 in0.0 mm 0.00 in/hr0.0 mm/hr 0.00 in0.0 mm
07:15 PM 72.9°F22.7°C 72.6°F22.6°C 99% Calm Calm -- 29.63 in1003.4 mb 0.00 in0.0 mm 0.00 in/hr0.0 mm/hr 0.00 in0.0 mm
07:10 PM 73.2°F22.9°C 73.0°F22.8°C 99% Calm Calm -- 29.63 in1003.4 mb 0.00 in0.0 mm 0.00 in/hr0.0 mm/hr 0.00 in0.0 mm
07:05 PM 73.4°F23.0°C 73.2°F22.9°C 99% Calm Calm -- 29.63 in1003.4 mb 0.00 in0.0 mm 0.00 in/hr0.0 mm/hr 0.00 in0.0 mm
07:00 PM 73.4°F23.0°C 73.2°F22.9°C 99% Calm Calm -- 29.62 in1003.0 mb 0.00 in0.0 mm 0.00 in/hr0.0 mm/hr 0.00 in0.0 mm
06:55 PM 73.8°F23.2°C 73.5°F23.1°C 99% Calm Calm -- 29.62 in1003.0 mb 0.00 in0.0 mm 0.00 in/hr0.0 mm/hr 0.00 in0.0 mm
06:50 PM 73.9°F23.3°C 73.7°F23.2°C 99% Calm Calm -- 29.62 in1003.0 mb 0.00 in0.0 mm 0.00 in/hr0.0 mm/hr 0.00 in0.0 mm
06:45 PM 74.3°F23.5°C 74.1°F23.4°C 99% Calm Calm -- 29.62 in1003.0 mb 0.00 in0.0 mm 0.00 in/hr0.0 mm/hr 0.00 in0.0 mm
06:40 PM 74.3°F23.5°C 74.1°F23.4°C 99% Calm Calm -- 29.62 in1003.0 mb 0.00 in0.0 mm 0.00 in/hr0.0 mm/hr 0.00 in0.0 mm
06:35 PM 74.5°F23.6°C 74.2°F23.4°C 99% Calm Calm -- 29.61 in1002.7 mb 0.00 in0.0 mm 0.00 in/hr0.0 mm/hr 0.00 in0.0 mm
06:30 PM 74.8°F23.8°C 74.6°F23.7°C 99% Calm Calm -- 29.61 in1002.7 mb 0.00 in0.0 mm 0.00 in/hr0.0 mm/hr 0.00 in0.0 mm
06:25 PM 74.8°F23.8°C 74.6°F23.7°C 99% Calm Calm -- 29.61 in1002.7 mb 0.00 in0.0 mm 0.00 in/hr0.0 mm/hr 0.00 in0.0 mm
06:20 PM 75.4°F24.1°C 75.1°F23.9°C 99% 0.1 mph S0.2 kmh S 0.7 mph1.1 kmh 29.60 in1002.4 mb 0.00 in0.0 mm 0.00 in/hr0.0 mm/hr 0.00 in0.0 mm
06:15 PM 75.6°F24.2°C 75.3°F24.1°C 99% 0.1 mph S0.2 kmh S 0.7 mph1.1 kmh 29.61 in1002.7 mb 0.00 in0.0 mm 0.00 in/hr0.0 mm/hr 0.00 in0.0 mm
06:10 PM 75.9°F24.4°C 75.7°F24.3°C 99% Calm Calm 0.7 mph1.1 kmh 29.60 in1002.4 mb 0.00 in0.0 mm 0.00 in/hr0.0 mm/hr 0.00 in0.0 mm
06:05 PM 76.6°F24.8°C 76.4°F24.7°C 99% Calm Calm 0.7 mph1.1 kmh 29.60 in1002.4 mb 0.00 in0.0 mm 0.00 in/hr0.0 mm/hr 0.00 in0.0 mm
06:00 PM 76.6°F24.8°C 76.4°F24.7°C 99% 0.2 mph S0.3 kmh S 0.7 mph1.1 kmh 29.60 in1002.4 mb 0.00 in0.0 mm 0.00 in/hr0.0 mm/hr 0.00 in0.0 mm
05:55 PM 77.0°F25.0°C 76.8°F24.9°C 99% 0.4 mph S0.6 kmh S 0.7 mph1.1 kmh 29.60 in1002.4 mb 0.00 in0.0 mm 0.00 in/hr0.0 mm/hr 0.00 in0.0 mm
05:50 PM 77.2°F25.1°C 76.9°F24.9°C 99% 0.3 mph S0.5 kmh S 0.7 mph1.1 kmh 29.60 in1002.4 mb 0.00 in0.0 mm 0.00 in/hr0.0 mm/hr 0.00 in0.0 mm
05:45 PM 77.5°F25.3°C 76.7°F24.8°C 97% Calm Calm -- 29.60 in1002.4 mb 0.00 in0.0 mm 0.00 in/hr0.0 mm/hr 0.00 in0.0 mm
05:40 PM 78.1°F25.6°C 76.9°F24.9°C 96% Calm Calm -- 29.60 in1002.4 mb 0.00 in0.0 mm 0.00 in/hr0.0 mm/hr 0.00 in0.0 mm
05:35 PM 78.6°F25.9°C 76.5°F24.7°C 93% Calm Calm -- 29.59 in1002.0 mb 0.00 in0.0 mm 0.00 in/hr0.0 mm/hr 0.00 in0.0 mm
05:30 PM 79.0°F26.1°C 76.2°F24.6°C 91% Calm Calm -- 29.60 in1002.4 mb 0.00 in0.0 mm 0.00 in/hr0.0 mm/hr 0.00 in0.0 mm
05:25 PM 80.8°F27.1°C 76.3°F24.6°C 86% Calm Calm -- 29.59 in1002.0 mb 0.00 in0.0 mm 0.00 in/hr0.0 mm/hr 0.00 in0.0 mm
05:20 PM 80.8°F27.1°C 76.3°F24.6°C 86% Calm Calm -- 29.59 in1002.0 mb 0.00 in0.0 mm 0.00 in/hr0.0 mm/hr 0.00 in0.0 mm
05:15 PM 81.1°F27.3°C 76.3°F24.6°C 85% 0.1 mph SW0.2 kmh SW 0.7 mph1.1 kmh 29.59 in1002.0 mb 0.00 in0.0 mm 0.00 in/hr0.0 mm/hr 0.00 in0.0 mm
05:10 PM 81.5°F27.5°C 76.3°F24.6°C 84% 0.2 mph WSW0.3 kmh WSW 0.7 mph1.1 kmh 29.58 in1001.7 mb 0.00 in0.0 mm 0.00 in/hr0.0 mm/hr 0.00 in0.0 mm
05:05 PM 81.5°F27.5°C 75.5°F24.2°C 82% 0.7 mph SW1.1 kmh SW 2.2 mph3.5 kmh 29.58 in1001.7 mb 0.00 in0.0 mm 0.00 in/hr0.0 mm/hr 0.00 in0.0 mm
05:00 PM 81.7°F27.6°C 75.7°F24.3°C 82% 1.5 mph SW2.4 kmh SW 3.1 mph5.0 kmh 29.58 in1001.7 mb 0.00 in0.0 mm 0.00 in/hr0.0 mm/hr 0.00 in0.0 mm
04:55 PM 81.9°F27.7°C 75.5°F24.2°C 81% 1.7 mph SW2.7 kmh SW 3.1 mph5.0 kmh 29.58 in1001.7 mb 0.00 in0.0 mm 0.00 in/hr0.0 mm/hr 0.00 in0.0 mm
04:50 PM 82.2°F27.9°C 75.5°F24.2°C 80% 1.8 mph WSW2.9 kmh WSW 3.1 mph5.0 kmh 29.57 in1001.4 mb 0.00 in0.0 mm 0.00 in/hr0.0 mm/hr 0.00 in0.0 mm
04:45 PM 82.4°F28.0°C 75.7°F24.3°C 80% 2.8 mph WSW4.5 kmh WSW 6.0 mph9.7 kmh 29.57 in1001.4 mb 0.00 in0.0 mm 0.00 in/hr0.0 mm/hr 0.00 in0.0 mm
04:40 PM 82.4°F28.0°C 75.3°F24.1°C 79% 3.5 mph WSW5.6 kmh WSW 6.0 mph9.7 kmh 29.57 in1001.4 mb 0.00 in0.0 mm 0.00 in/hr0.0 mm/hr 0.00 in0.0 mm
04:35 PM 82.4°F28.0°C 75.3°F24.1°C 79% 3.5 mph WSW5.6 kmh WSW 6.0 mph9.7 kmh 29.58 in1001.7 mb 0.00 in0.0 mm 0.00 in/hr0.0 mm/hr 0.00 in0.0 mm
04:30 PM 82.8°F28.2°C 75.3°F24.1°C 78% 3.4 mph W5.5 kmh W 6.0 mph9.7 kmh 29.57 in1001.4 mb 0.00 in0.0 mm 0.00 in/hr0.0 mm/hr 0.00 in0.0 mm
04:25 PM 82.9°F28.3°C 75.8°F24.3°C 79% 3.7 mph WNW6.0 kmh WNW 6.0 mph9.7 kmh 29.57 in1001.4 mb 0.00 in0.0 mm 0.00 in/hr0.0 mm/hr 0.00 in0.0 mm
04:20 PM 83.3°F28.5°C 75.8°F24.3°C 78% 5.2 mph WNW8.4 kmh WNW 8.3 mph13.4 kmh 29.57 in1001.4 mb 0.00 in0.0 mm 0.00 in/hr0.0 mm/hr 0.00 in0.0 mm
04:15 PM 83.3°F28.5°C 75.8°F24.3°C 78% 5.0 mph W8.0 kmh W 8.3 mph13.4 kmh 29.57 in1001.4 mb 0.00 in0.0 mm 0.00 in/hr0.0 mm/hr 0.00 in0.0 mm
04:10 PM 83.8°F28.8°C 75.9°F24.4°C 77% 3.6 mph SW5.8 kmh SW 6.9 mph11.1 kmh 29.57 in1001.4 mb 0.00 in0.0 mm 0.00 in/hr0.0 mm/hr 0.00 in0.0 mm
04:05 PM 84.0°F28.9°C 76.5°F24.7°C 78% 3.8 mph SW6.1 kmh SW 6.9 mph11.1 kmh 29.56 in1001.0 mb 0.00 in0.0 mm 0.00 in/hr0.0 mm/hr 0.00 in0.0 mm
04:00 PM 84.0°F28.9°C 76.5°F24.7°C 78% 3.6 mph SW5.8 kmh SW 6.9 mph11.1 kmh 29.55 in1000.7 mb 0.00 in0.0 mm 0.00 in/hr0.0 mm/hr 0.00 in0.0 mm
03:55 PM 84.4°F29.1°C 76.8°F24.9°C 78% 3.0 mph WSW4.8 kmh WSW 4.5 mph7.2 kmh 29.55 in1000.7 mb 0.00 in0.0 mm 0.00 in/hr0.0 mm/hr 0.00 in0.0 mm
03:50 PM 84.6°F29.2°C 76.2°F24.6°C 76% 3.9 mph WSW6.3 kmh WSW 6.9 mph11.1 kmh 29.55 in1000.7 mb 0.00 in0.0 mm 0.00 in/hr0.0 mm/hr 0.00 in0.0 mm
03:45 PM 84.7°F29.3°C 76.4°F24.7°C 76% 4.9 mph SW7.9 kmh SW 7.6 mph12.2 kmh 29.55 in1000.7 mb 0.00 in0.0 mm 0.00 in/hr0.0 mm/hr 0.00 in0.0 mm
03:40 PM 84.7°F29.3°C 76.0°F24.4°C 75% 5.5 mph SW8.9 kmh SW 9.2 mph14.8 kmh 29.55 in1000.7 mb 0.00 in0.0 mm 0.00 in/hr0.0 mm/hr 0.00 in0.0 mm
03:35 PM 84.9°F29.4°C 76.6°F24.8°C 76% 5.4 mph SW8.7 kmh SW 9.2 mph14.8 kmh 29.55 in1000.7 mb 0.00 in0.0 mm 0.00 in/hr0.0 mm/hr 0.00 in0.0 mm
03:30 PM 84.9°F29.4°C 76.2°F24.6°C 75% 6.5 mph SSW10.5 kmh SSW 9.2 mph14.8 kmh 29.54 in1000.3 mb 0.00 in0.0 mm 0.00 in/hr0.0 mm/hr 0.00 in0.0 mm
03:25 PM 84.4°F29.1°C 76.1°F24.5°C 76% 8.3 mph SSW13.4 kmh SSW 9.2 mph14.8 kmh 29.54 in1000.3 mb 0.00 in0.0 mm 0.00 in/hr0.0 mm/hr 0.00 in0.0 mm
03:20 PM 84.6°F29.2°C 75.8°F24.3°C 75% 8.0 mph SSW12.9 kmh SSW 10.7 mph17.2 kmh 29.54 in1000.3 mb 0.00 in0.0 mm 0.00 in/hr0.0 mm/hr 0.00 in0.0 mm
03:15 PM 84.6°F29.2°C 75.8°F24.3°C 75% 7.3 mph SW11.7 kmh SW 10.7 mph17.2 kmh 29.54 in1000.3 mb 0.00 in0.0 mm 0.00 in/hr0.0 mm/hr 0.00 in0.0 mm
03:10 PM 85.1°F29.5°C 75.9°F24.4°C 74% 9.1 mph SSE14.6 kmh SSE 11.4 mph18.3 kmh 29.54 in1000.3 mb 0.00 in0.0 mm 0.00 in/hr0.0 mm/hr 0.00 in0.0 mm
03:05 PM 85.3°F29.6°C 75.7°F24.3°C 73% 11.1 mph S17.9 kmh S 17.4 mph28.0 kmh 29.55 in1000.7 mb 0.00 in0.0 mm 0.00 in/hr0.0 mm/hr 0.00 in0.0 mm
03:00 PM 84.9°F29.4°C 75.4°F24.1°C 73% 11.7 mph SW18.8 kmh SW 17.4 mph28.0 kmh 29.54 in1000.3 mb 0.00 in0.0 mm 0.00 in/hr0.0 mm/hr 0.00 in0.0 mm
02:55 PM 85.5°F29.7°C 75.9°F24.4°C 73% 10.0 mph SW16.1 kmh SW 14.5 mph23.3 kmh 29.54 in1000.3 mb 0.00 in0.0 mm 0.00 in/hr0.0 mm/hr 0.00 in0.0 mm
02:50 PM 86.4°F30.2°C 75.9°F24.4°C 71% 8.2 mph SW13.2 kmh SW 16.8 mph27.0 kmh 29.54 in1000.3 mb 0.00 in0.0 mm 0.00 in/hr0.0 mm/hr 0.00 in0.0 mm
02:45 PM 86.5°F30.3°C 76.1°F24.5°C 71% 8.8 mph WSW14.2 kmh WSW 16.8 mph27.0 kmh 29.54 in1000.3 mb 0.00 in0.0 mm 0.00 in/hr0.0 mm/hr 0.00 in0.0 mm
02:40 PM 86.4°F30.2°C 76.8°F24.9°C 73% 10.5 mph NW16.9 kmh NW 12.1 mph19.5 kmh 29.54 in1000.3 mb 0.00 in0.0 mm 0.00 in/hr0.0 mm/hr 0.00 in0.0 mm
02:35 PM 86.4°F30.2°C 75.9°F24.4°C 71% 11.1 mph W17.9 kmh W 13.0 mph20.9 kmh 29.54 in1000.3 mb 0.00 in0.0 mm 0.00 in/hr0.0 mm/hr 0.00 in0.0 mm
02:30 PM 86.4°F30.2°C 75.9°F24.4°C 71% 9.9 mph SSW15.9 kmh SSW 15.2 mph24.5 kmh 29.54 in1000.3 mb 0.00 in0.0 mm 0.00 in/hr0.0 mm/hr 0.00 in0.0 mm
02:25 PM 86.2°F30.1°C 76.2°F24.6°C 72% 9.1 mph SW14.6 kmh SW 15.2 mph24.5 kmh 29.55 in1000.7 mb 0.00 in0.0 mm 0.00 in/hr0.0 mm/hr 0.00 in0.0 mm
02:20 PM 86.0°F30.0°C 76.0°F24.4°C 72% 9.5 mph SW15.3 kmh SW 15.2 mph24.5 kmh 29.54 in1000.3 mb 0.00 in0.0 mm 0.00 in/hr0.0 mm/hr 0.00 in0.0 mm
02:15 PM 85.3°F29.6°C 75.7°F24.3°C 73% 8.8 mph SW14.2 kmh SW 15.2 mph24.5 kmh 29.54 in1000.3 mb 0.00 in0.0 mm 0.00 in/hr0.0 mm/hr 0.00 in0.0 mm
02:10 PM 85.6°F29.8°C 75.6°F24.2°C 72% 6.8 mph SSW10.9 kmh SSW 11.4 mph18.3 kmh 29.54 in1000.3 mb 0.00 in0.0 mm 0.00 in/hr0.0 mm/hr 0.00 in0.0 mm
02:05 PM 85.1°F29.5°C 75.5°F24.2°C 73% 7.4 mph SSW11.9 kmh SSW 13.6 mph21.9 kmh 29.54 in1000.3 mb 0.00 in0.0 mm 0.00 in/hr0.0 mm/hr 0.00 in0.0 mm
02:00 PM 84.9°F29.4°C 74.9°F23.8°C 72% 10.8 mph SW17.4 kmh SW 16.8 mph27.0 kmh 29.55 in1000.7 mb 0.00 in0.0 mm 0.00 in/hr0.0 mm/hr 0.00 in0.0 mm
01:55 PM 85.3°F29.6°C 74.5°F23.6°C 70% 12.4 mph SSW20.0 kmh SSW 16.8 mph27.0 kmh 29.55 in1000.7 mb 0.00 in0.0 mm 0.00 in/hr0.0 mm/hr 0.00 in0.0 mm
01:50 PM 86.0°F30.0°C 74.7°F23.7°C 69% 10.7 mph S17.2 kmh S 16.8 mph27.0 kmh 29.55 in1000.7 mb 0.00 in0.0 mm 0.00 in/hr0.0 mm/hr 0.00 in0.0 mm
01:45 PM 87.1°F30.6°C 75.3°F24.1°C 68% 10.0 mph SSW16.1 kmh SSW 15.2 mph24.5 kmh 29.55 in1000.7 mb 0.00 in0.0 mm 0.00 in/hr0.0 mm/hr 0.00 in0.0 mm
01:40 PM 87.4°F30.8°C 74.8°F23.8°C 66% 10.1 mph WSW16.3 kmh WSW 15.2 mph24.5 kmh 29.55 in1000.7 mb 0.00 in0.0 mm 0.00 in/hr0.0 mm/hr 0.00 in0.0 mm
01:35 PM 87.6°F30.9°C 76.3°F24.6°C 69% 8.7 mph W14.0 kmh W 9.8 mph15.8 kmh 29.55 in1000.7 mb 0.00 in0.0 mm 0.00 in/hr0.0 mm/hr 0.00 in0.0 mm
01:30 PM 87.6°F30.9°C 76.3°F24.6°C 69% 9.3 mph SW15.0 kmh SW 13.6 mph21.9 kmh 29.55 in1000.7 mb 0.00 in0.0 mm 0.00 in/hr0.0 mm/hr 0.00 in0.0 mm
01:25 PM 86.7°F30.4°C 76.3°F24.6°C 71% 10.3 mph SW16.6 kmh SW 15.2 mph24.5 kmh 29.55 in1000.7 mb 0.00 in0.0 mm 0.00 in/hr0.0 mm/hr 0.00 in0.0 mm
01:20 PM 86.2°F30.1°C 75.3°F24.1°C 70% 10.8 mph WSW17.4 kmh WSW 17.4 mph28.0 kmh 29.55 in1000.7 mb 0.00 in0.0 mm 0.00 in/hr0.0 mm/hr 0.00 in0.0 mm
01:15 PM 86.2°F30.1°C 75.3°F24.1°C 70% 11.5 mph WSW18.5 kmh WSW 17.4 mph28.0 kmh 29.55 in1000.7 mb 0.00 in0.0 mm 0.00 in/hr0.0 mm/hr 0.00 in0.0 mm
01:10 PM 87.3°F30.7°C 75.9°F24.4°C 69% 11.3 mph S18.2 kmh S 18.3 mph29.5 kmh 29.55 in1000.7 mb 0.00 in0.0 mm 0.00 in/hr0.0 mm/hr 0.00 in0.0 mm
01:05 PM 87.1°F30.6°C 76.2°F24.6°C 70% 11.8 mph SSW19.0 kmh SSW 18.3 mph29.5 kmh 29.56 in1001.0 mb 0.00 in0.0 mm 0.00 in/hr0.0 mm/hr 0.00 in0.0 mm
01:00 PM 86.7°F30.4°C 75.8°F24.3°C 70% 12.0 mph WSW19.3 kmh WSW 15.2 mph24.5 kmh 29.56 in1001.0 mb 0.00 in0.0 mm 0.00 in/hr0.0 mm/hr 0.00 in0.0 mm
12:55 PM 86.5°F30.3°C 76.1°F24.5°C 71% 11.2 mph SW18.0 kmh SW 15.2 mph24.5 kmh 29.56 in1001.0 mb 0.00 in0.0 mm 0.00 in/hr0.0 mm/hr 0.00 in0.0 mm
12:50 PM 86.5°F30.3°C 76.5°F24.7°C 72% 11.9 mph SSW19.2 kmh SSW 19.0 mph30.6 kmh 29.56 in1001.0 mb 0.00 in0.0 mm 0.00 in/hr0.0 mm/hr 0.00 in0.0 mm
12:45 PM 85.6°F29.8°C 76.1°F24.5°C 73% 15.0 mph SW24.1 kmh SW 19.0 mph30.6 kmh 29.57 in1001.4 mb 0.00 in0.0 mm 0.00 in/hr0.0 mm/hr 0.00 in0.0 mm
12:40 PM 85.3°F29.6°C 76.1°F24.5°C 74% 16.6 mph SW26.7 kmh SW 19.0 mph30.6 kmh 29.57 in1001.4 mb 0.00 in0.0 mm 0.00 in/hr0.0 mm/hr 0.00 in0.0 mm
12:35 PM 84.6°F29.2°C 75.8°F24.3°C 75% 15.0 mph SW24.1 kmh SW 20.6 mph33.2 kmh 29.57 in1001.4 mb 0.00 in0.0 mm 0.00 in/hr0.0 mm/hr 0.00 in0.0 mm
12:30 PM 84.6°F29.2°C 75.8°F24.3°C 75% 12.5 mph SW20.1 kmh SW 20.6 mph33.2 kmh 29.57 in1001.4 mb 0.00 in0.0 mm 0.00 in/hr0.0 mm/hr 0.00 in0.0 mm
12:25 PM 84.6°F29.2°C 76.6°F24.8°C 77% 11.2 mph SW18.0 kmh SW 15.2 mph24.5 kmh 29.58 in1001.7 mb 0.00 in0.0 mm 0.00 in/hr0.0 mm/hr 0.00 in0.0 mm
12:20 PM 83.8°F28.8°C 76.3°F24.6°C 78% 11.3 mph WSW18.2 kmh WSW 16.8 mph27.0 kmh 29.58 in1001.7 mb 0.00 in0.0 mm 0.00 in/hr0.0 mm/hr 0.00 in0.0 mm
12:15 PM 83.5°F28.6°C 76.0°F24.4°C 78% 11.2 mph WSW18.0 kmh WSW 16.8 mph27.0 kmh 29.59 in1002.0 mb 0.00 in0.0 mm 0.00 in/hr0.0 mm/hr 0.00 in0.0 mm
12:10 PM 83.8°F28.8°C 76.3°F24.6°C 78% 8.6 mph SW13.8 kmh SW 16.8 mph27.0 kmh 29.59 in1002.0 mb 0.00 in0.0 mm 0.00 in/hr0.0 mm/hr 0.00 in0.0 mm
12:05 PM 84.7°F29.3°C 76.8°F24.9°C 77% 8.0 mph SW12.9 kmh SW 12.1 mph19.5 kmh 29.59 in1002.0 mb 0.00 in0.0 mm 0.00 in/hr0.0 mm/hr 0.00 in0.0 mm
12:00 PM 84.2°F29.0°C 76.3°F24.6°C 77% 10.9 mph WSW17.5 kmh WSW 18.3 mph29.5 kmh 29.59 in1002.0 mb 0.00 in0.0 mm 0.00 in/hr0.0 mm/hr 0.00 in0.0 mm
11:55 AM 84.2°F29.0°C 76.3°F24.6°C 77% 11.6 mph S18.7 kmh S 18.3 mph29.5 kmh 29.59 in1002.0 mb 0.00 in0.0 mm 0.00 in/hr0.0 mm/hr 0.00 in0.0 mm
11:50 AM 84.7°F29.3°C 77.2°F25.1°C 78% 12.0 mph SSW19.3 kmh SSW 16.8 mph27.0 kmh 29.60 in1002.4 mb 0.00 in0.0 mm 0.00 in/hr0.0 mm/hr 0.00 in0.0 mm
11:45 AM 83.7°F28.7°C 76.9°F24.9°C 80% 12.5 mph WSW20.1 kmh WSW 16.8 mph27.0 kmh 29.60 in1002.4 mb 0.00 in0.0 mm 0.00 in/hr0.0 mm/hr 0.00 in0.0 mm
11:40 AM 83.8°F28.8°C 76.7°F24.8°C 79% 11.3 mph WSW18.2 kmh WSW 15.9 mph25.6 kmh 29.60 in1002.4 mb 0.00 in0.0 mm 0.00 in/hr0.0 mm/hr 0.00 in0.0 mm
11:35 AM 82.8°F28.2°C 76.8°F24.9°C 82% 11.5 mph WSW18.5 kmh WSW 17.4 mph28.0 kmh 29.61 in1002.7 mb 0.00 in0.0 mm 0.00 in/hr0.0 mm/hr 0.00 in0.0 mm
11:30 AM 82.8°F28.2°C 76.8°F24.9°C 82% 12.8 mph SW20.6 kmh SW 17.4 mph28.0 kmh 29.61 in1002.7 mb 0.00 in0.0 mm 0.00 in/hr0.0 mm/hr 0.00 in0.0 mm
11:25 AM 82.2°F27.9°C 76.6°F24.8°C 83% 13.5 mph SW21.7 kmh SW 17.4 mph28.0 kmh 29.61 in1002.7 mb 0.00 in0.0 mm 0.00 in/hr0.0 mm/hr 0.00 in0.0 mm
11:20 AM 82.4°F28.0°C 76.0°F24.4°C 81% 12.3 mph SW19.8 kmh SW 17.4 mph28.0 kmh 29.61 in1002.7 mb 0.00 in0.0 mm 0.00 in/hr0.0 mm/hr 0.00 in0.0 mm
11:15 AM 83.5°F28.6°C 77.1°F25.1°C 81% 10.4 mph SSW16.7 kmh SSW 16.8 mph27.0 kmh 29.61 in1002.7 mb 0.00 in0.0 mm 0.00 in/hr0.0 mm/hr 0.00 in0.0 mm
11:10 AM 83.3°F28.5°C 77.3°F25.2°C 82% 11.3 mph SSW18.2 kmh SSW 16.8 mph27.0 kmh 29.62 in1003.0 mb 0.00 in0.0 mm 0.00 in/hr0.0 mm/hr 0.00 in0.0 mm
11:05 AM 82.6°F28.1°C 77.0°F25.0°C 83% 10.9 mph SW17.5 kmh SW 16.8 mph27.0 kmh 29.62 in1003.0 mb 0.00 in0.0 mm 0.00 in/hr0.0 mm/hr 0.00 in0.0 mm
11:00 AM 82.4°F28.0°C 76.8°F24.9°C 83% 10.3 mph SW16.6 kmh SW 14.5 mph23.3 kmh 29.62 in1003.0 mb 0.00 in0.0 mm 0.00 in/hr0.0 mm/hr 0.00 in0.0 mm
10:55 AM 81.3°F27.4°C 76.8°F24.9°C 86% 10.2 mph SSW16.4 kmh SSW 14.5 mph23.3 kmh 29.62 in1003.0 mb 0.00 in0.0 mm 0.00 in/hr0.0 mm/hr 0.00 in0.0 mm
10:50 AM 80.6°F27.0°C 76.8°F24.9°C 88% 10.0 mph SW16.1 kmh SW 15.9 mph25.6 kmh 29.62 in1003.0 mb 0.00 in0.0 mm 0.00 in/hr0.0 mm/hr 0.00 in0.0 mm
10:45 AM 80.6°F27.0°C 76.4°F24.7°C 87% 9.5 mph WSW15.3 kmh WSW 15.9 mph25.6 kmh 29.62 in1003.0 mb 0.00 in0.0 mm 0.00 in/hr0.0 mm/hr 0.00 in0.0 mm
10:40 AM 82.0°F27.8°C 77.1°F25.1°C 85% 8.7 mph SW14.0 kmh SW 13.6 mph21.9 kmh 29.62 in1003.0 mb 0.00 in0.0 mm 0.00 in/hr0.0 mm/hr 0.00 in0.0 mm
10:35 AM 81.9°F27.7°C 77.7°F25.4°C 87% 9.4 mph SW15.1 kmh SW 14.5 mph23.3 kmh 29.62 in1003.0 mb 0.00 in0.0 mm 0.00 in/hr0.0 mm/hr 0.00 in0.0 mm
10:30 AM 80.8°F27.1°C 77.0°F25.0°C 88% 9.8 mph S15.8 kmh S 14.5 mph23.3 kmh 29.62 in1003.0 mb 0.00 in0.0 mm 0.00 in/hr0.0 mm/hr 0.00 in0.0 mm
10:25 AM 80.2°F26.8°C 77.4°F25.2°C 91% 10.7 mph SW17.2 kmh SW 15.9 mph25.6 kmh 29.62 in1003.0 mb 0.00 in0.0 mm 0.00 in/hr0.0 mm/hr 0.00 in0.0 mm
10:20 AM 79.3°F26.3°C 77.2°F25.1°C 93% 10.8 mph SW17.4 kmh SW 15.9 mph25.6 kmh 29.62 in1003.0 mb 0.00 in0.0 mm 0.00 in/hr0.0 mm/hr 0.00 in0.0 mm
10:15 AM 78.6°F25.9°C 77.4°F25.2°C 96% 10.5 mph SW16.9 kmh SW 16.8 mph27.0 kmh 29.63 in1003.4 mb 0.00 in0.0 mm 0.00 in/hr0.0 mm/hr 0.00 in0.0 mm
10:10 AM 78.4°F25.8°C 77.3°F25.2°C 96% 13.8 mph SW22.2 kmh SW 16.8 mph27.0 kmh 29.63 in1003.4 mb 0.00 in0.0 mm 0.00 in/hr0.0 mm/hr 0.00 in0.0 mm
10:05 AM 78.6°F25.9°C 77.1°F25.1°C 95% 13.2 mph SW21.2 kmh SW 16.8 mph27.0 kmh 29.62 in1003.0 mb 0.00 in0.0 mm 0.00 in/hr0.0 mm/hr 0.00 in0.0 mm
10:00 AM 78.6°F25.9°C 77.1°F25.1°C 95% 10.9 mph S17.5 kmh S 22.1 mph35.6 kmh 29.63 in1003.4 mb 0.00 in0.0 mm 0.00 in/hr0.0 mm/hr 0.00 in0.0 mm
09:55 AM 79.0°F26.1°C 77.2°F25.1°C 94% 11.4 mph S18.3 kmh S 22.1 mph35.6 kmh 29.63 in1003.4 mb 0.00 in0.0 mm 0.00 in/hr0.0 mm/hr 0.00 in0.0 mm
09:50 AM 80.1°F26.7°C 77.3°F25.2°C 91% 11.2 mph S18.0 kmh S 15.2 mph24.5 kmh 29.62 in1003.0 mb 0.00 in0.0 mm 0.00 in/hr0.0 mm/hr 0.00 in0.0 mm
09:45 AM 79.7°F26.5°C 77.6°F25.3°C 93% 11.0 mph S17.7 kmh S 16.8 mph27.0 kmh 29.62 in1003.0 mb 0.00 in0.0 mm 0.00 in/hr0.0 mm/hr 0.00 in0.0 mm
09:40 AM 79.3°F26.3°C 77.5°F25.3°C 94% 11.1 mph WSW17.9 kmh WSW 19.7 mph31.7 kmh 29.62 in1003.0 mb 0.00 in0.0 mm 0.00 in/hr0.0 mm/hr 0.00 in0.0 mm
09:35 AM 79.2°F26.2°C 77.3°F25.2°C 94% 12.1 mph SW19.5 kmh SW 19.7 mph31.7 kmh 29.62 in1003.0 mb 0.00 in0.0 mm 0.00 in/hr0.0 mm/hr 0.00 in0.0 mm
09:30 AM 78.8°F26.0°C 77.6°F25.3°C 96% 11.7 mph SW18.8 kmh SW 16.8 mph27.0 kmh 29.62 in1003.0 mb 0.00 in0.0 mm 0.00 in/hr0.0 mm/hr 0.00 in0.0 mm
09:25 AM 78.4°F25.8°C 77.6°F25.3°C 97% 11.5 mph SW18.5 kmh SW 16.8 mph27.0 kmh 29.62 in1003.0 mb 0.00 in0.0 mm 0.00 in/hr0.0 mm/hr 0.00 in0.0 mm
09:20 AM 78.4°F25.8°C 77.6°F25.3°C 97% 10.0 mph SW16.1 kmh SW 14.5 mph23.3 kmh 29.62 in1003.0 mb 0.00 in0.0 mm 0.00 in/hr0.0 mm/hr 0.00 in0.0 mm
09:15 AM 79.2°F26.2°C 78.0°F25.6°C 96% 9.2 mph S14.8 kmh S 11.4 mph18.3 kmh 29.62 in1003.0 mb 0.00 in0.0 mm 0.00 in/hr0.0 mm/hr 0.00 in0.0 mm
09:10 AM 79.0°F26.1°C 77.8°F25.4°C 96% 10.8 mph SE17.4 kmh SE 11.4 mph18.3 kmh 29.62 in1003.0 mb 0.00 in0.0 mm 0.00 in/hr0.0 mm/hr 0.00 in0.0 mm
09:05 AM 78.8°F26.0°C 77.9°F25.5°C 97% 10.2 mph S16.4 kmh S 16.8 mph27.0 kmh 29.62 in1003.0 mb 0.00 in0.0 mm 0.00 in/hr0.0 mm/hr 0.00 in0.0 mm
09:00 AM 78.8°F26.0°C 77.9°F25.5°C 97% 10.1 mph SW16.3 kmh SW 16.8 mph27.0 kmh 29.61 in1002.7 mb 0.00 in0.0 mm 0.00 in/hr0.0 mm/hr 0.00 in0.0 mm
08:55 AM 78.1°F25.6°C 77.8°F25.4°C 99% 10.6 mph SW17.1 kmh SW 14.5 mph23.3 kmh 29.61 in1002.7 mb 0.00 in0.0 mm 0.00 in/hr0.0 mm/hr 0.00 in0.0 mm
08:50 AM 77.7°F25.4°C 77.5°F25.3°C 99% 10.8 mph SW17.4 kmh SW 17.4 mph28.0 kmh 29.61 in1002.7 mb 0.00 in0.0 mm 0.00 in/hr0.0 mm/hr 0.00 in0.0 mm
08:45 AM 77.0°F25.0°C 76.8°F24.9°C 99% 10.6 mph SSW17.1 kmh SSW 17.4 mph28.0 kmh 29.61 in1002.7 mb 0.00 in0.0 mm 0.00 in/hr0.0 mm/hr 0.00 in0.0 mm
08:40 AM 77.2°F25.1°C 76.9°F24.9°C 99% 9.9 mph S15.9 kmh S 13.6 mph21.9 kmh 29.61 in1002.7 mb 0.00 in0.0 mm 0.00 in/hr0.0 mm/hr 0.00 in0.0 mm
08:35 AM 77.4°F25.2°C 77.1°F25.1°C 99% 10.0 mph SW16.1 kmh SW 13.6 mph21.9 kmh 29.61 in1002.7 mb 0.00 in0.0 mm 0.00 in/hr0.0 mm/hr 0.00 in0.0 mm
08:30 AM 77.2°F25.1°C 76.9°F24.9°C 99% 11.0 mph SSW17.7 kmh SSW 15.2 mph24.5 kmh 29.61 in1002.7 mb 0.00 in0.0 mm 0.00 in/hr0.0 mm/hr 0.00 in0.0 mm
08:25 AM 77.0°F25.0°C 76.8°F24.9°C 99% 11.9 mph S19.2 kmh S 16.8 mph27.0 kmh 29.60 in1002.4 mb 0.00 in0.0 mm 0.00 in/hr0.0 mm/hr 0.00 in0.0 mm
08:20 AM 76.6°F24.8°C 76.4°F24.7°C 99% 11.1 mph SSW17.9 kmh SSW 16.8 mph27.0 kmh 29.60 in1002.4 mb 0.00 in0.0 mm 0.00 in/hr0.0 mm/hr 0.00 in0.0 mm
08:15 AM 75.9°F24.4°C 75.7°F24.3°C 99% 9.9 mph S15.9 kmh S 12.1 mph19.5 kmh 29.60 in1002.4 mb 0.00 in0.0 mm 0.00 in/hr0.0 mm/hr 0.00 in0.0 mm
08:10 AM 75.7°F24.3°C 75.5°F24.2°C 99% 9.7 mph S15.6 kmh S 9.8 mph15.8 kmh 29.61 in1002.7 mb 0.00 in0.0 mm 0.00 in/hr0.0 mm/hr 0.00 in0.0 mm
08:05 AM 74.3°F23.5°C 74.1°F23.4°C 99% 9.1 mph SSW14.6 kmh SSW 12.1 mph19.5 kmh 29.61 in1002.7 mb 0.00 in0.0 mm 0.00 in/hr0.0 mm/hr 0.00 in0.0 mm
08:00 AM 74.3°F23.5°C 74.1°F23.4°C 99% 7.7 mph SW12.4 kmh SW 12.1 mph19.5 kmh 29.60 in1002.4 mb 0.00 in0.0 mm 0.00 in/hr0.0 mm/hr 0.00 in0.0 mm
07:55 AM 73.8°F23.2°C 73.5°F23.1°C 99% 6.8 mph SW10.9 kmh SW 9.8 mph15.8 kmh 29.60 in1002.4 mb 0.00 in0.0 mm 0.00 in/hr0.0 mm/hr 0.00 in0.0 mm
07:50 AM 73.4°F23.0°C 73.2°F22.9°C 99% 6.7 mph SSW10.8 kmh SSW 9.2 mph14.8 kmh 29.60 in1002.4 mb 0.00 in0.0 mm 0.00 in/hr0.0 mm/hr 0.00 in0.0 mm
07:45 AM 73.2°F22.9°C 73.0°F22.8°C 99% 7.5 mph SW12.1 kmh SW 10.7 mph17.2 kmh 29.60 in1002.4 mb 0.00 in0.0 mm 0.00 in/hr0.0 mm/hr 0.00 in0.0 mm
07:40 AM 73.0°F22.8°C 72.8°F22.7°C 99% 6.9 mph S11.1 kmh S 10.7 mph17.2 kmh 29.60 in1002.4 mb 0.00 in0.0 mm 0.00 in/hr0.0 mm/hr 0.00 in0.0 mm
07:35 AM 72.9°F22.7°C 72.6°F22.6°C 99% 6.6 mph S10.6 kmh S 10.7 mph17.2 kmh 29.60 in1002.4 mb 0.00 in0.0 mm 0.00 in/hr0.0 mm/hr 0.00 in0.0 mm
07:30 AM 72.7°F22.6°C 72.4°F22.4°C 99% 8.2 mph SSW13.2 kmh SSW 14.5 mph23.3 kmh 29.60 in1002.4 mb 0.00 in0.0 mm 0.00 in/hr0.0 mm/hr 0.00 in0.0 mm
07:25 AM 72.7°F22.6°C 72.4°F22.4°C 99% 7.8 mph SSW12.6 kmh SSW 14.5 mph23.3 kmh 29.59 in1002.0 mb 0.00 in0.0 mm 0.00 in/hr0.0 mm/hr 0.00 in0.0 mm
07:20 AM 72.5°F22.5°C 72.2°F22.3°C 99% 7.2 mph S11.6 kmh S 10.7 mph17.2 kmh 29.59 in1002.0 mb 0.00 in0.0 mm 0.00 in/hr0.0 mm/hr 0.00 in0.0 mm
07:15 AM 72.3°F22.4°C 72.1°F22.3°C 99% 7.7 mph WSW12.4 kmh WSW 10.7 mph17.2 kmh 29.59 in1002.0 mb 0.00 in0.0 mm 0.00 in/hr0.0 mm/hr 0.00 in0.0 mm
07:10 AM 72.5°F22.5°C 72.2°F22.3°C 99% 8.4 mph NW13.5 kmh NW 9.2 mph14.8 kmh 29.59 in1002.0 mb 0.00 in0.0 mm 0.00 in/hr0.0 mm/hr 0.00 in0.0 mm
07:05 AM 72.5°F22.5°C 72.2°F22.3°C 99% 9.2 mph W14.8 kmh W 11.4 mph18.3 kmh 29.59 in1002.0 mb 0.00 in0.0 mm 0.00 in/hr0.0 mm/hr 0.00 in0.0 mm
07:00 AM 72.5°F22.5°C 72.2°F22.3°C 99% 8.5 mph SW13.7 kmh SW 11.4 mph18.3 kmh 29.59 in1002.0 mb 0.00 in0.0 mm 0.00 in/hr0.0 mm/hr 0.00 in0.0 mm
06:55 AM 72.3°F22.4°C 72.1°F22.3°C 99% 7.7 mph SSW12.4 kmh SSW 12.1 mph19.5 kmh 29.59 in1002.0 mb 0.00 in0.0 mm 0.00 in/hr0.0 mm/hr 0.00 in0.0 mm
06:50 AM 72.3°F22.4°C 72.1°F22.3°C 99% 7.1 mph SSW11.4 kmh SSW 12.1 mph19.5 kmh 29.58 in1001.7 mb 0.00 in0.0 mm 0.00 in/hr0.0 mm/hr 0.00 in0.0 mm
06:45 AM 72.5°F22.5°C 72.2°F22.3°C 99% 7.4 mph S11.9 kmh S 14.5 mph23.3 kmh 29.58 in1001.7 mb 0.00 in0.0 mm 0.00 in/hr0.0 mm/hr 0.00 in0.0 mm
06:40 AM 72.5°F22.5°C 72.2°F22.3°C 99% 8.4 mph S13.5 kmh S 14.5 mph23.3 kmh 29.58 in1001.7 mb 0.00 in0.0 mm 0.00 in/hr0.0 mm/hr 0.00 in0.0 mm
06:35 AM 72.3°F22.4°C 72.1°F22.3°C 99% 7.4 mph S11.9 kmh S 10.7 mph17.2 kmh 29.58 in1001.7 mb 0.00 in0.0 mm 0.00 in/hr0.0 mm/hr 0.00 in0.0 mm
06:30 AM 72.1°F22.3°C 71.9°F22.2°C 99% 6.7 mph S10.8 kmh S 9.2 mph14.8 kmh 29.58 in1001.7 mb 0.00 in0.0 mm 0.00 in/hr0.0 mm/hr 0.00 in0.0 mm
06:25 AM 72.5°F22.5°C 72.2°F22.3°C 99% 6.9 mph S11.1 kmh S 10.7 mph17.2 kmh 29.57 in1001.4 mb 0.00 in0.0 mm 0.00 in/hr0.0 mm/hr 0.00 in0.0 mm
06:20 AM 72.5°F22.5°C 72.2°F22.3°C 99% 5.5 mph S8.9 kmh S 10.7 mph17.2 kmh 29.57 in1001.4 mb 0.00 in0.0 mm 0.00 in/hr0.0 mm/hr 0.00 in0.0 mm
06:15 AM 72.5°F22.5°C 72.2°F22.3°C 99% 5.3 mph S8.5 kmh S 7.6 mph12.2 kmh 29.58 in1001.7 mb 0.00 in0.0 mm 0.00 in/hr0.0 mm/hr 0.00 in0.0 mm
06:10 AM 72.5°F22.5°C 72.2°F22.3°C 99% 6.8 mph S10.9 kmh S 7.6 mph12.2 kmh 29.58 in1001.7 mb 0.00 in0.0 mm 0.00 in/hr0.0 mm/hr 0.00 in0.0 mm
06:05 AM 72.7°F22.6°C 72.4°F22.4°C 99% 7.0 mph S11.3 kmh S 9.2 mph14.8 kmh 29.58 in1001.7 mb 0.00 in0.0 mm 0.00 in/hr0.0 mm/hr 0.00 in0.0 mm
06:00 AM 72.7°F22.6°C 72.4°F22.4°C 99% 5.6 mph S9.0 kmh S 9.2 mph14.8 kmh 29.58 in1001.7 mb 0.00 in0.0 mm 0.00 in/hr0.0 mm/hr 0.00 in0.0 mm
05:55 AM 72.7°F22.6°C 72.4°F22.4°C 99% 4.6 mph S7.4 kmh S 6.9 mph11.1 kmh 29.58 in1001.7 mb 0.00 in0.0 mm 0.00 in/hr0.0 mm/hr 0.00 in0.0 mm
05:50 AM 72.5°F22.5°C 72.2°F22.3°C 99% 4.3 mph SSW6.9 kmh SSW 6.0 mph9.7 kmh 29.58 in1001.7 mb 0.00 in0.0 mm 0.00 in/hr0.0 mm/hr 0.00 in0.0 mm
05:45 AM 72.5°F22.5°C 72.2°F22.3°C 99% 4.4 mph SW7.1 kmh SW 6.0 mph9.7 kmh 29.57 in1001.4 mb 0.00 in0.0 mm 0.00 in/hr0.0 mm/hr 0.00 in0.0 mm
05:40 AM 72.7°F22.6°C 72.4°F22.4°C 99% 5.3 mph SSW8.5 kmh SSW 8.3 mph13.4 kmh 29.57 in1001.4 mb 0.00 in0.0 mm 0.00 in/hr0.0 mm/hr 0.00 in0.0 mm
05:35 AM 72.5°F22.5°C 72.2°F22.3°C 99% 5.4 mph SW8.7 kmh SW 8.3 mph13.4 kmh 29.57 in1001.4 mb 0.00 in0.0 mm 0.00 in/hr0.0 mm/hr 0.00 in0.0 mm
05:30 AM 72.5°F22.5°C 72.2°F22.3°C 99% 5.0 mph SW8.0 kmh SW 6.9 mph11.1 kmh 29.57 in1001.4 mb 0.00 in0.0 mm 0.00 in/hr0.0 mm/hr 0.00 in0.0 mm
05:25 AM 72.5°F22.5°C 72.2°F22.3°C 99% 4.8 mph S7.7 kmh S 7.6 mph12.2 kmh 29.57 in1001.4 mb 0.00 in0.0 mm 0.00 in/hr0.0 mm/hr 0.00 in0.0 mm
05:20 AM 72.3°F22.4°C 72.1°F22.3°C 99% 4.1 mph S6.6 kmh S 7.6 mph12.2 kmh 29.57 in1001.4 mb 0.00 in0.0 mm 0.00 in/hr0.0 mm/hr 0.00 in0.0 mm
05:15 AM 72.3°F22.4°C 72.1°F22.3°C 99% 3.1 mph S5.0 kmh S 6.0 mph9.7 kmh 29.57 in1001.4 mb 0.00 in0.0 mm 0.00 in/hr0.0 mm/hr 0.00 in0.0 mm
05:10 AM 72.5°F22.5°C 72.2°F22.3°C 99% 2.4 mph SE3.9 kmh SE 3.8 mph6.1 kmh 29.57 in1001.4 mb 0.00 in0.0 mm 0.00 in/hr0.0 mm/hr 0.00 in0.0 mm
05:05 AM 72.3°F22.4°C 72.1°F22.3°C 99% 2.8 mph S4.5 kmh S 5.4 mph8.7 kmh 29.57 in1001.4 mb 0.00 in0.0 mm 0.00 in/hr0.0 mm/hr 0.00 in0.0 mm
05:00 AM 72.3°F22.4°C 72.1°F22.3°C 99% 4.0 mph SW6.4 kmh SW 6.0 mph9.7 kmh 29.57 in1001.4 mb 0.00 in0.0 mm 0.00 in/hr0.0 mm/hr 0.00 in0.0 mm
04:55 AM 72.1°F22.3°C 71.9°F22.2°C 99% 4.1 mph SSW6.6 kmh SSW 6.0 mph9.7 kmh 29.57 in1001.4 mb 0.00 in0.0 mm 0.00 in/hr0.0 mm/hr 0.00 in0.0 mm
04:50 AM 72.3°F22.4°C 72.1°F22.3°C 99% 3.9 mph SW6.3 kmh SW 6.0 mph9.7 kmh 29.57 in1001.4 mb 0.00 in0.0 mm 0.00 in/hr0.0 mm/hr 0.00 in0.0 mm
04:45 AM 72.3°F22.4°C 72.1°F22.3°C 99% 3.8 mph SW6.1 kmh SW 6.0 mph9.7 kmh 29.57 in1001.4 mb 0.00 in0.0 mm 0.00 in/hr0.0 mm/hr 0.00 in0.0 mm
04:40 AM 72.3°F22.4°C 72.1°F22.3°C 99% 4.4 mph SW7.1 kmh SW 7.6 mph12.2 kmh 29.56 in1001.0 mb 0.00 in0.0 mm 0.00 in/hr0.0 mm/hr 0.00 in0.0 mm
04:35 AM 72.3°F22.4°C 72.1°F22.3°C 99% 4.9 mph SW7.9 kmh SW 7.6 mph12.2 kmh 29.56 in1001.0 mb 0.00 in0.0 mm 0.00 in/hr0.0 mm/hr 0.00 in0.0 mm
04:30 AM 72.3°F22.4°C 72.1°F22.3°C 99% 4.5 mph S7.2 kmh S 7.6 mph12.2 kmh 29.56 in1001.0 mb 0.00 in0.0 mm 0.00 in/hr0.0 mm/hr 0.00 in0.0 mm
04:25 AM 72.5°F22.5°C 72.2°F22.3°C 99% 4.4 mph S7.1 kmh S 7.6 mph12.2 kmh 29.56 in1001.0 mb 0.00 in0.0 mm 0.00 in/hr0.0 mm/hr 0.00 in0.0 mm
04:20 AM 72.5°F22.5°C 72.2°F22.3°C 99% 4.3 mph S6.9 kmh S 6.0 mph9.7 kmh 29.56 in1001.0 mb 0.00 in0.0 mm 0.00 in/hr0.0 mm/hr 0.00 in0.0 mm
04:15 AM 72.5°F22.5°C 72.2°F22.3°C 99% 5.0 mph SSE8.0 kmh SSE 6.9 mph11.1 kmh 29.57 in1001.4 mb 0.00 in0.0 mm 0.00 in/hr0.0 mm/hr 0.00 in0.0 mm
04:10 AM 72.5°F22.5°C 72.2°F22.3°C 99% 6.0 mph SE9.7 kmh SE 6.9 mph11.1 kmh 29.56 in1001.0 mb 0.00 in0.0 mm 0.00 in/hr0.0 mm/hr 0.00 in0.0 mm
04:05 AM 72.7°F22.6°C 72.4°F22.4°C 99% 6.9 mph SSE11.1 kmh SSE 10.7 mph17.2 kmh 29.57 in1001.4 mb 0.00 in0.0 mm 0.00 in/hr0.0 mm/hr 0.00 in0.0 mm
04:00 AM 72.7°F22.6°C 72.4°F22.4°C 99% 6.2 mph SSW10.0 kmh SSW 10.7 mph17.2 kmh 29.57 in1001.4 mb 0.00 in0.0 mm 0.00 in/hr0.0 mm/hr 0.00 in0.0 mm
03:55 AM 72.5°F22.5°C 72.2°F22.3°C 99% 5.0 mph SSW8.0 kmh SSW 6.9 mph11.1 kmh 29.56 in1001.0 mb 0.00 in0.0 mm 0.00 in/hr0.0 mm/hr 0.00 in0.0 mm
03:50 AM 72.7°F22.6°C 72.4°F22.4°C 99% 4.5 mph SSW7.2 kmh SSW 6.0 mph9.7 kmh 29.56 in1001.0 mb 0.00 in0.0 mm 0.00 in/hr0.0 mm/hr 0.00 in0.0 mm
03:45 AM 72.9°F22.7°C 72.6°F22.6°C 99% 4.7 mph SSW7.6 kmh SSW 9.8 mph15.8 kmh 29.56 in1001.0 mb 0.00 in0.0 mm 0.00 in/hr0.0 mm/hr 0.00 in0.0 mm
03:40 AM 72.9°F22.7°C 72.6°F22.6°C 99% 5.1 mph SSW8.2 kmh SSW 9.8 mph15.8 kmh 29.56 in1001.0 mb 0.00 in0.0 mm 0.00 in/hr0.0 mm/hr 0.00 in0.0 mm
03:35 AM 73.0°F22.8°C 72.8°F22.7°C 99% 5.6 mph SW9.0 kmh SW 8.3 mph13.4 kmh 29.57 in1001.4 mb 0.00 in0.0 mm 0.00 in/hr0.0 mm/hr 0.00 in0.0 mm
03:30 AM 73.0°F22.8°C 72.8°F22.7°C 99% 5.8 mph WSW9.3 kmh WSW 9.2 mph14.8 kmh 29.56 in1001.0 mb 0.00 in0.0 mm 0.00 in/hr0.0 mm/hr 0.00 in0.0 mm
03:25 AM 73.4°F23.0°C 73.2°F22.9°C 99% 6.3 mph WSW10.1 kmh WSW 9.2 mph14.8 kmh 29.57 in1001.4 mb 0.00 in0.0 mm 0.00 in/hr0.0 mm/hr 0.00 in0.0 mm
03:20 AM 73.2°F22.9°C 73.0°F22.8°C 99% 7.0 mph SW11.3 kmh SW 10.7 mph17.2 kmh 29.57 in1001.4 mb 0.00 in0.0 mm 0.00 in/hr0.0 mm/hr 0.00 in0.0 mm
03:15 AM 73.0°F22.8°C 72.8°F22.7°C 99% 6.7 mph S10.8 kmh S 10.7 mph17.2 kmh 29.57 in1001.4 mb 0.00 in0.0 mm 0.00 in/hr0.0 mm/hr 0.00 in0.0 mm
03:10 AM 73.2°F22.9°C 73.0°F22.8°C 99% 5.3 mph SSE8.5 kmh SSE 10.7 mph17.2 kmh 29.56 in1001.0 mb 0.00 in0.0 mm 0.00 in/hr0.0 mm/hr 0.00 in0.0 mm
03:05 AM 72.9°F22.7°C 72.6°F22.6°C 99% 6.7 mph S10.8 kmh S 11.4 mph18.3 kmh 29.56 in1001.0 mb 0.00 in0.0 mm 0.00 in/hr0.0 mm/hr 0.00 in0.0 mm
03:00 AM 72.9°F22.7°C 72.6°F22.6°C 99% 9.0 mph SSW14.5 kmh SSW 19.0 mph30.6 kmh 29.56 in1001.0 mb 0.00 in0.0 mm 0.00 in/hr0.0 mm/hr 0.00 in0.0 mm
02:55 AM 73.0°F22.8°C 72.8°F22.7°C 99% 8.6 mph SW13.8 kmh SW 19.0 mph30.6 kmh 29.56 in1001.0 mb 0.00 in0.0 mm 0.00 in/hr0.0 mm/hr 0.00 in0.0 mm
02:50 AM 72.9°F22.7°C 72.6°F22.6°C 99% 7.9 mph SW12.7 kmh SW 11.4 mph18.3 kmh 29.55 in1000.7 mb 0.00 in0.0 mm 0.00 in/hr0.0 mm/hr 0.00 in0.0 mm
02:45 AM 72.9°F22.7°C 72.6°F22.6°C 99% 7.8 mph WSW12.6 kmh WSW 11.4 mph18.3 kmh 29.56 in1001.0 mb 0.00 in0.0 mm 0.00 in/hr0.0 mm/hr 0.00 in0.0 mm
02:40 AM 72.7°F22.6°C 72.4°F22.4°C 99% 7.7 mph SW12.4 kmh SW 10.7 mph17.2 kmh 29.56 in1001.0 mb 0.00 in0.0 mm 0.00 in/hr0.0 mm/hr 0.00 in0.0 mm
02:35 AM 72.3°F22.4°C 72.1°F22.3°C 99% 7.5 mph SSW12.1 kmh SSW 10.7 mph17.2 kmh 29.56 in1001.0 mb 0.00 in0.0 mm 0.00 in/hr0.0 mm/hr 0.00 in0.0 mm
02:30 AM 72.1°F22.3°C 71.9°F22.2°C 99% 7.1 mph SSW11.4 kmh SSW 9.8 mph15.8 kmh 29.55 in1000.7 mb 0.00 in0.0 mm 0.00 in/hr0.0 mm/hr 0.00 in0.0 mm
02:25 AM 72.0°F22.2°C 71.7°F22.1°C 99% 6.9 mph SW11.1 kmh SW 10.7 mph17.2 kmh 29.55 in1000.7 mb 0.00 in0.0 mm 0.00 in/hr0.0 mm/hr 0.00 in0.0 mm
02:20 AM 72.1°F22.3°C 71.9°F22.2°C 99% 7.5 mph SSW12.1 kmh SSW 11.4 mph18.3 kmh 29.55 in1000.7 mb 0.00 in0.0 mm 0.00 in/hr0.0 mm/hr 0.00 in0.0 mm
02:15 AM 72.0°F22.2°C 71.7°F22.1°C 99% 7.5 mph SSW12.1 kmh SSW 11.4 mph18.3 kmh 29.55 in1000.7 mb 0.00 in0.0 mm 0.00 in/hr0.0 mm/hr 0.00 in0.0 mm
02:10 AM 72.0°F22.2°C 71.7°F22.1°C 99% 7.4 mph SW11.9 kmh SW 11.4 mph18.3 kmh 29.55 in1000.7 mb 0.00 in0.0 mm 0.00 in/hr0.0 mm/hr 0.00 in0.0 mm
02:05 AM 72.0°F22.2°C 71.7°F22.1°C 99% 7.4 mph SW11.9 kmh SW 9.2 mph14.8 kmh 29.55 in1000.7 mb 0.00 in0.0 mm 0.00 in/hr0.0 mm/hr 0.00 in0.0 mm
02:00 AM 72.0°F22.2°C 71.7°F22.1°C 99% 6.3 mph SW10.1 kmh SW 9.2 mph14.8 kmh 29.55 in1000.7 mb 0.00 in0.0 mm 0.00 in/hr0.0 mm/hr 0.00 in0.0 mm
01:55 AM 71.8°F22.1°C 71.5°F21.9°C 99% 5.6 mph SSW9.0 kmh SSW 8.3 mph13.4 kmh 29.55 in1000.7 mb 0.00 in0.0 mm 0.00 in/hr0.0 mm/hr 0.00 in0.0 mm
01:50 AM 71.8°F22.1°C 71.5°F21.9°C 99% 6.3 mph SW10.1 kmh SW 9.8 mph15.8 kmh 29.55 in1000.7 mb 0.00 in0.0 mm 0.00 in/hr0.0 mm/hr 0.00 in0.0 mm
01:45 AM 71.8°F22.1°C 71.5°F21.9°C 99% 5.9 mph SW9.5 kmh SW 9.8 mph15.8 kmh 29.55 in1000.7 mb 0.00 in0.0 mm 0.00 in/hr0.0 mm/hr 0.00 in0.0 mm
01:40 AM 71.8°F22.1°C 71.5°F21.9°C 99% 4.8 mph SSW7.7 kmh SSW 7.6 mph12.2 kmh 29.55 in1000.7 mb 0.00 in0.0 mm 0.00 in/hr0.0 mm/hr 0.00 in0.0 mm
01:35 AM 71.6°F22.0°C 71.3°F21.8°C 99% 5.4 mph S8.7 kmh S 9.2 mph14.8 kmh 29.55 in1000.7 mb 0.00 in0.0 mm 0.00 in/hr0.0 mm/hr 0.00 in0.0 mm
01:30 AM 71.6°F22.0°C 71.3°F21.8°C 99% 6.9 mph S11.1 kmh S 10.7 mph17.2 kmh 29.55 in1000.7 mb 0.00 in0.0 mm 0.00 in/hr0.0 mm/hr 0.00 in0.0 mm
01:25 AM 71.8°F22.1°C 71.5°F21.9°C 99% 6.7 mph S10.8 kmh S 10.7 mph17.2 kmh 29.55 in1000.7 mb 0.00 in0.0 mm 0.00 in/hr0.0 mm/hr 0.00 in0.0 mm
01:20 AM 71.8°F22.1°C 71.5°F21.9°C 99% 5.5 mph S8.9 kmh S 10.7 mph17.2 kmh 29.55 in1000.7 mb 0.00 in0.0 mm 0.00 in/hr0.0 mm/hr 0.00 in0.0 mm
01:15 AM 71.4°F21.9°C 71.2°F21.8°C 99% 5.3 mph SSE8.5 kmh SSE 6.9 mph11.1 kmh 29.55 in1000.7 mb 0.00 in0.0 mm 0.00 in/hr0.0 mm/hr 0.00 in0.0 mm
01:10 AM 71.6°F22.0°C 71.3°F21.8°C 99% 6.3 mph SE10.1 kmh SE 6.9 mph11.1 kmh 29.55 in1000.7 mb 0.00 in0.0 mm 0.00 in/hr0.0 mm/hr 0.00 in0.0 mm
01:05 AM 71.8°F22.1°C 71.5°F21.9°C 99% 5.9 mph SSE9.5 kmh SSE 6.9 mph11.1 kmh 29.55 in1000.7 mb 0.00 in0.0 mm 0.00 in/hr0.0 mm/hr 0.00 in0.0 mm
01:00 AM 71.8°F22.1°C 71.5°F21.9°C 99% 5.5 mph S8.9 kmh S 8.3 mph13.4 kmh 29.55 in1000.7 mb 0.00 in0.0 mm 0.00 in/hr0.0 mm/hr 0.00 in0.0 mm
12:55 AM 72.0°F22.2°C 71.7°F22.1°C 99% 5.2 mph S8.4 kmh S 8.3 mph13.4 kmh 29.55 in1000.7 mb 0.00 in0.0 mm 0.00 in/hr0.0 mm/hr 0.00 in0.0 mm
12:50 AM 71.8°F22.1°C 71.5°F21.9°C 99% 4.3 mph S6.9 kmh S 6.9 mph11.1 kmh 29.55 in1000.7 mb 0.00 in0.0 mm 0.00 in/hr0.0 mm/hr 0.00 in0.0 mm
12:45 AM 71.8°F22.1°C 71.5°F21.9°C 99% 4.5 mph S7.2 kmh S 5.4 mph8.7 kmh 29.54 in1000.3 mb 0.00 in0.0 mm 0.00 in/hr0.0 mm/hr 0.00 in0.0 mm
12:40 AM 71.8°F22.1°C 71.5°F21.9°C 99% 4.6 mph S7.4 kmh S 6.0 mph9.7 kmh 29.55 in1000.7 mb 0.00 in0.0 mm 0.00 in/hr0.0 mm/hr 0.00 in0.0 mm
12:35 AM 71.6°F22.0°C 71.3°F21.8°C 99% 3.6 mph S5.8 kmh S 6.0 mph9.7 kmh 29.55 in1000.7 mb 0.00 in0.0 mm 0.00 in/hr0.0 mm/hr 0.00 in0.0 mm
12:30 AM 72.0°F22.2°C 71.7°F22.1°C 99% 3.1 mph S5.0 kmh S 3.8 mph6.1 kmh 29.55 in1000.7 mb 0.00 in0.0 mm 0.00 in/hr0.0 mm/hr 0.00 in0.0 mm
12:25 AM 72.0°F22.2°C 71.7°F22.1°C 99% 3.5 mph SW5.6 kmh SW 3.8 mph6.1 kmh 29.55 in1000.7 mb 0.00 in0.0 mm 0.00 in/hr0.0 mm/hr 0.00 in0.0 mm
12:20 AM 72.0°F22.2°C 71.7°F22.1°C 99% 3.8 mph SW6.1 kmh SW 6.9 mph11.1 kmh 29.55 in1000.7 mb 0.00 in0.0 mm 0.00 in/hr0.0 mm/hr 0.00 in0.0 mm
12:15 AM 71.8°F22.1°C 71.5°F21.9°C 99% 3.8 mph SSW6.1 kmh SSW 6.9 mph11.1 kmh 29.55 in1000.7 mb 0.00 in0.0 mm 0.00 in/hr0.0 mm/hr 0.00 in0.0 mm
12:10 AM 72.0°F22.2°C 71.7°F22.1°C 99% 3.7 mph SSW6.0 kmh SSW 5.4 mph8.7 kmh 29.55 in1000.7 mb 0.00 in0.0 mm 0.00 in/hr0.0 mm/hr 0.00 in0.0 mm
12:05 AM 72.1°F22.3°C 71.9°F22.2°C 99% 3.6 mph SW5.8 kmh SW 6.0 mph9.7 kmh 29.56 in1001.0 mb 0.00 in0.0 mm 0.00 in/hr0.0 mm/hr 0.00 in0.0 mm
12:00 AM 72.1°F22.3°C 71.9°F22.2°C 99% 4.1 mph SSW6.6 kmh SSW 6.9 mph11.1 kmh 29.56 in1001.0 mb 0.00 in0.0 mm 0.00 in/hr0.0 mm/hr 0.00 in0.0 mm